Time;durP1;ratioP1;P1;durP2;ratioP2;P2;SDS_P1;SDS_P2;PMS_P1;PMS_P2;Temp;Humidity;BMP_temperature;BMP_pressure;BME280_temperature;BME280_humidity;BME280_pressure;Samples;Min_cycle;Max_cycle;Signal;HPM_P1;HPM_P2
2023/01/20 00:01:10;;;;;;;;;;;0.50;99.90;;;;;;5074652;28;19929;-79
2023/01/20 00:03:40;;;;;;;;;;;0.40;99.90;;;;;;5074582;28;19910;-77
2023/01/20 00:06:06;;;;;;;;;;;0.40;99.90;;;;;;5073827;28;19904;-81
2023/01/20 00:08:31;;;;;;;;;;;0.40;99.90;;;;;;5055679;28;19911;-80
2023/01/20 00:10:57;;;;;;;;;;;0.40;99.90;;;;;;5068850;28;20048;-80
2023/01/20 00:13:22;;;;;;;;;;;0.40;99.90;;;;;;5066065;28;19905;-77
2023/01/20 00:15:48;;;;;;;;;;;0.40;99.90;;;;;;5070568;28;19904;-83
2023/01/20 00:18:14;;;;;;;;;;;0.40;99.90;;;;;;5068019;28;19909;-78
2023/01/20 00:20:40;;;;;;;;;;;0.40;99.90;;;;;;5059575;28;20303;-74
2023/01/20 00:23:06;;;;;;;;;;;0.40;99.90;;;;;;5074758;28;19905;-78
2023/01/20 00:25:34;;;;;;;;;;;0.40;99.90;;;;;;5064082;28;20311;-84
2023/01/20 00:27:59;;;;;;;;;;;0.40;99.90;;;;;;5058626;28;20216;-77
2023/01/20 00:30:25;;;;;;;;;;;0.30;99.90;;;;;;5065423;28;19905;-80
2023/01/20 00:32:51;;;;;;;;;;;0.30;99.90;;;;;;5069440;28;19911;-82
2023/01/20 00:35:16;;;;;;;;;;;0.40;99.90;;;;;;5075439;28;19911;-83
2023/01/20 00:37:42;;;;;;;;;;;0.40;99.90;;;;;;5075213;28;19905;-78
2023/01/20 00:40:08;;;;;;;;;;;0.40;99.90;;;;;;5074471;28;19951;-80
2023/01/20 00:42:33;;;;;;;;;;;0.40;99.90;;;;;;5075146;28;19908;-80
2023/01/20 00:44:59;;;;;;;;;;;0.40;99.90;;;;;;5060326;28;19912;-79
2023/01/20 00:47:24;;;;;;;;;;;0.40;99.90;;;;;;5075398;28;19973;-78
2023/01/20 00:49:50;;;;;;;;;;;0.40;99.90;;;;;;5060308;28;20210;-73
2023/01/20 00:52:17;;;;;;;;;;;0.40;99.90;;;;;;5074906;28;19988;-77
2023/01/20 00:54:43;;;;;;;;;;;0.30;99.90;;;;;;5075196;28;19943;-78
2023/01/20 00:57:08;;;;;;;;;;;0.30;99.90;;;;;;5060112;28;20350;-78
2023/01/20 00:59:34;;;;;;;;;;;0.20;99.90;;;;;;5073517;28;19917;-78
2023/01/20 01:01:59;;;;;;;;;;;0.20;99.90;;;;;;5073258;28;19912;-76
2023/01/20 01:04:25;;;;;;;;;;;0.20;99.90;;;;;;5074799;28;19912;-79
2023/01/20 01:06:51;;;;;;;;;;;0.20;99.90;;;;;;5075148;28;19999;-78
2023/01/20 01:09:16;;;;;;;;;;;0.20;99.90;;;;;;5070287;28;19935;-78
2023/01/20 01:11:42;;;;;;;;;;;0.20;99.90;;;;;;5065291;28;19969;-78
2023/01/20 01:14:08;;;;;;;;;;;0.20;99.90;;;;;;5066699;28;19989;-78
2023/01/20 01:16:33;;;;;;;;;;;0.20;99.90;;;;;;5074705;28;19911;-80
2023/01/20 01:18:59;;;;;;;;;;;0.20;99.90;;;;;;5078884;28;20191;-78
2023/01/20 01:21:24;;;;;;;;;;;0.20;99.90;;;;;;5076925;28;20253;-78
2023/01/20 01:23:53;;;;;;;;;;;0.20;99.90;;;;;;5074147;28;20437;-77
2023/01/20 01:26:19;;;;;;;;;;;0.30;99.90;;;;;;5068378;28;20264;-79
2023/01/20 01:28:46;;;;;;;;;;;0.30;99.90;;;;;;5076693;28;20026;-78
2023/01/20 01:31:12;;;;;;;;;;;0.50;99.90;;;;;;5077453;28;20276;-78
2023/01/20 01:33:37;;;;;;;;;;;0.50;99.90;;;;;;5073157;28;19912;-77
2023/01/20 01:36:03;;;;;;;;;;;0.50;99.90;;;;;;5068294;28;19911;-78
2023/01/20 01:38:29;;;;;;;;;;;0.40;99.90;;;;;;5077863;28;19922;-78
2023/01/20 01:40:55;;;;;;;;;;;0.40;99.90;;;;;;5061293;28;20250;-77
2023/01/20 01:43:25;;;;;;;;;;;0.40;99.90;;;;;;5071114;28;19912;-78
2023/01/20 01:45:50;;;;;;;;;;;0.40;99.90;;;;;;5065026;28;19908;-77
2023/01/20 01:48:17;;;;;;;;;;;0.40;99.90;;;;;;5075339;28;19912;-77
2023/01/20 01:50:47;;;;;;;;;;;0.40;99.90;;;;;;5076454;28;19911;-78
2023/01/20 01:53:13;;;;;;;;;;;0.40;99.90;;;;;;5078400;28;20014;-79
2023/01/20 01:55:42;;;;;;;;;;;0.40;99.90;;;;;;5077623;28;19912;-78
2023/01/20 01:58:10;;;;;;;;;;;0.40;99.90;;;;;;5064247;28;19905;-78
2023/01/20 02:00:37;;;;;;;;;;;0.40;99.90;;;;;;5073420;28;19924;-80
2023/01/20 02:03:03;;;;;;;;;;;0.40;99.90;;;;;;5073958;28;19908;-78
2023/01/20 02:05:29;;;;;;;;;;;0.40;99.90;;;;;;5078025;28;19999;-78
2023/01/20 02:07:56;;;;;;;;;;;0.50;99.90;;;;;;5060565;28;19908;-78
2023/01/20 02:10:21;;;;;;;;;;;0.40;99.90;;;;;;5076386;28;19920;-80
2023/01/20 02:12:50;;;;;;;;;;;0.50;99.90;;;;;;5077280;28;19905;-79
2023/01/20 02:15:16;;;;;;;;;;;0.50;99.90;;;;;;5070584;28;19911;-77
2023/01/20 02:17:52;;;;;;;;;;;0.40;99.90;;;;;;5077566;28;20283;-77
2023/01/20 02:20:18;;;;;;;;;;;0.40;99.90;;;;;;5063772;28;19912;-78
2023/01/20 02:23:02;;;;;;;;;;;0.40;99.90;;;;;;5063941;28;19905;-81
2023/01/20 02:25:33;;;;;;;;;;;0.40;99.90;;;;;;5064320;28;19904;-79
2023/01/20 02:27:59;;;;;;;;;;;0.40;99.90;;;;;;5076635;28;19914;-80
2023/01/20 02:30:38;;;;;;;;;;;0.40;99.90;;;;;;5062777;28;19904;-77
2023/01/20 02:33:07;;;;;;;;;;;0.40;99.90;;;;;;5076239;28;19912;-78
2023/01/20 02:35:36;;;;;;;;;;;0.50;99.90;;;;;;5070891;28;19991;-79
2023/01/20 02:38:08;;;;;;;;;;;0.50;99.90;;;;;;5068026;28;19904;-78
2023/01/20 02:40:58;;;;;;;;;;;0.40;99.90;;;;;;5062793;28;19940;-78
2023/01/20 02:43:37;;;;;;;;;;;0.50;99.90;;;;;;5068926;28;19911;-78
2023/01/20 02:46:22;;;;;;;;;;;0.50;99.90;;;;;;5061851;28;19908;-78
2023/01/20 02:49:06;;;;;;;;;;;0.50;99.90;;;;;;5066140;28;19912;-77
2023/01/20 02:51:35;;;;;;;;;;;0.50;99.90;;;;;;5076966;28;19904;-77
2023/01/20 02:54:04;;;;;;;;;;;0.40;99.90;;;;;;5077233;28;20008;-77
2023/01/20 02:56:30;;;;;;;;;;;0.40;99.90;;;;;;5075748;28;19913;-78
2023/01/20 02:59:01;;;;;;;;;;;0.40;99.90;;;;;;5071744;28;19916;-77
2023/01/20 03:01:32;;;;;;;;;;;0.40;99.90;;;;;;5056789;28;19917;-78
2023/01/20 03:03:58;;;;;;;;;;;0.30;99.90;;;;;;5072774;28;19966;-78
2023/01/20 03:06:25;;;;;;;;;;;0.30;99.90;;;;;;5076915;28;20003;-79
2023/01/20 03:08:51;;;;;;;;;;;0.30;99.90;;;;;;5074683;28;20215;-77
2023/01/20 03:11:17;;;;;;;;;;;0.20;99.90;;;;;;5076741;28;19911;-78
2023/01/20 03:13:47;;;;;;;;;;;0.20;99.90;;;;;;5076697;28;19911;-78
2023/01/20 03:16:17;;;;;;;;;;;0.30;99.90;;;;;;5061902;28;19919;-77
2023/01/20 03:18:43;;;;;;;;;;;0.30;99.90;;;;;;5075407;28;19987;-79
2023/01/20 03:21:09;;;;;;;;;;;0.30;99.90;;;;;;5057046;28;20061;-78
2023/01/20 03:23:36;;;;;;;;;;;0.30;99.90;;;;;;5056610;28;19915;-81
2023/01/20 03:26:05;;;;;;;;;;;0.30;99.90;;;;;;5071608;28;20210;-77
2023/01/20 03:28:31;;;;;;;;;;;0.30;99.90;;;;;;5067016;28;19905;-76
2023/01/20 03:30:57;;;;;;;;;;;0.30;99.90;;;;;;5069864;28;19908;-78
2023/01/20 03:33:23;;;;;;;;;;;0.30;99.90;;;;;;5056283;28;19909;-77
2023/01/20 03:35:49;;;;;;;;;;;0.20;99.90;;;;;;5055357;28;20007;-79
2023/01/20 03:38:14;;;;;;;;;;;0.20;99.90;;;;;;5071083;28;20345;-78
2023/01/20 03:41:00;;;;;;;;;;;0.30;99.90;;;;;;5067477;28;20188;-73
2023/01/20 03:43:31;;;;;;;;;;;0.30;99.90;;;;;;5055854;28;19915;-78
2023/01/20 03:46:01;;;;;;;;;;;0.30;99.90;;;;;;5067697;28;20354;-78
2023/01/20 03:48:55;;;;;;;;;;;0.30;99.90;;;;;;5061367;28;20295;-78
2023/01/20 03:51:36;;;;;;;;;;;0.40;99.90;;;;;;5032403;28;19908;-78
2023/01/20 03:54:05;;;;;;;;;;;0.40;99.90;;;;;;5064039;28;19912;-79
2023/01/20 03:56:42;;;;;;;;;;;0.30;99.90;;;;;;5074398;28;20257;-79
2023/01/20 03:59:10;;;;;;;;;;;0.30;99.90;;;;;;5067284;28;19919;-78
2023/01/20 04:01:37;;;;;;;;;;;0.30;99.90;;;;;;5069528;28;19962;-78
2023/01/20 04:04:04;;;;;;;;;;;0.20;99.90;;;;;;5075661;28;19911;-79
2023/01/20 04:06:30;;;;;;;;;;;0.20;99.90;;;;;;5071258;28;19909;-79
2023/01/20 04:09:04;;;;;;;;;;;0.20;99.90;;;;;;5054988;28;19979;-79
2023/01/20 04:11:29;;;;;;;;;;;0.20;99.90;;;;;;5067660;28;19993;-79
2023/01/20 04:13:55;;;;;;;;;;;0.20;99.90;;;;;;5075022;28;19997;-78
2023/01/20 04:16:21;;;;;;;;;;;0.20;99.90;;;;;;5075195;28;20295;-77
2023/01/20 04:18:48;;;;;;;;;;;0.20;99.90;;;;;;5071462;28;20223;-78
2023/01/20 04:21:28;;;;;;;;;;;0.20;99.90;;;;;;5055217;28;19917;-78
2023/01/20 04:23:59;;;;;;;;;;;0.20;99.90;;;;;;5054211;28;19908;-78
2023/01/20 04:26:24;;;;;;;;;;;0.20;99.90;;;;;;5055675;28;20211;-78
2023/01/20 04:28:50;;;;;;;;;;;0.20;99.90;;;;;;5057098;28;19920;-77
2023/01/20 04:31:16;;;;;;;;;;;0.30;99.90;;;;;;5074234;28;19909;-80
2023/01/20 04:33:41;;;;;;;;;;;0.30;99.90;;;;;;5073626;28;19904;-74
2023/01/20 04:36:07;;;;;;;;;;;0.30;99.90;;;;;;5075422;28;19912;-79
2023/01/20 04:38:33;;;;;;;;;;;0.30;99.90;;;;;;5075123;28;19999;-79
2023/01/20 04:40:58;;;;;;;;;;;0.40;99.90;;;;;;5074417;28;20176;-79
2023/01/20 04:43:24;;;;;;;;;;;0.40;99.90;;;;;;5075282;28;19909;-79
2023/01/20 04:45:50;;;;;;;;;;;0.40;99.90;;;;;;5074321;28;19912;-79
2023/01/20 04:48:16;;;;;;;;;;;0.40;99.90;;;;;;5069928;28;19912;-79
2023/01/20 04:50:41;;;;;;;;;;;0.40;99.90;;;;;;5069557;28;19904;-79
2023/01/20 04:53:10;;;;;;;;;;;0.40;99.90;;;;;;5074748;28;19911;-79
2023/01/20 04:55:36;;;;;;;;;;;0.30;99.90;;;;;;5075060;28;19995;-78
2023/01/20 04:58:01;;;;;;;;;;;0.40;99.90;;;;;;5073693;28;19996;-78
2023/01/20 05:00:27;;;;;;;;;;;0.40;99.90;;;;;;5073089;28;19952;-78
2023/01/20 05:03:08;;;;;;;;;;;0.40;99.90;;;;;;5073876;28;19920;-78
2023/01/20 05:05:34;;;;;;;;;;;0.40;99.90;;;;;;5054956;28;20318;-79
2023/01/20 05:07:59;;;;;;;;;;;0.40;99.90;;;;;;5064993;28;19915;-79
2023/01/20 05:10:25;;;;;;;;;;;0.50;99.90;;;;;;5074106;28;20291;-81
2023/01/20 05:12:50;;;;;;;;;;;0.50;99.90;;;;;;5073902;28;19904;-79
2023/01/20 05:15:16;;;;;;;;;;;0.50;99.90;;;;;;5073268;28;19912;-79
2023/01/20 05:17:41;;;;;;;;;;;0.50;99.90;;;;;;5074923;28;19947;-78
2023/01/20 05:20:07;;;;;;;;;;;0.50;99.90;;;;;;5070230;28;19912;-79
2023/01/20 05:22:33;;;;;;;;;;;0.50;99.90;;;;;;5073402;28;19939;-78
2023/01/20 05:24:59;;;;;;;;;;;0.50;99.90;;;;;;5070306;28;19909;-79
2023/01/20 05:27:24;;;;;;;;;;;0.50;99.90;;;;;;5070135;28;20329;-77
2023/01/20 05:29:50;;;;;;;;;;;0.50;99.90;;;;;;5068473;28;20003;-75
2023/01/20 05:32:15;;;;;;;;;;;0.50;99.90;;;;;;5074901;28;20322;-77
2023/01/20 05:34:41;;;;;;;;;;;0.50;99.90;;;;;;5059852;28;20311;-73
2023/01/20 05:37:06;;;;;;;;;;;0.50;99.90;;;;;;5062298;28;20261;-78
2023/01/20 05:39:32;;;;;;;;;;;0.50;99.90;;;;;;5074570;28;20297;-76
2023/01/20 05:41:59;;;;;;;;;;;0.60;99.90;;;;;;5067459;28;19905;-78
2023/01/20 05:44:25;;;;;;;;;;;0.50;99.90;;;;;;5054711;28;19909;-79
2023/01/20 05:46:50;;;;;;;;;;;0.50;99.90;;;;;;5071090;28;19912;-78
2023/01/20 05:49:16;;;;;;;;;;;0.50;99.90;;;;;;5070540;28;19912;-77
2023/01/20 05:51:41;;;;;;;;;;;0.50;99.90;;;;;;5074088;28;19987;-77
2023/01/20 05:54:07;;;;;;;;;;;0.50;99.90;;;;;;5074666;28;20348;-78
2023/01/20 05:56:32;;;;;;;;;;;0.50;99.90;;;;;;5073665;28;19904;-77
2023/01/20 05:58:58;;;;;;;;;;;0.50;99.90;;;;;;5061739;28;19935;-77
2023/01/20 06:01:24;;;;;;;;;;;0.50;99.90;;;;;;5064810;28;20230;-76
2023/01/20 06:03:49;;;;;;;;;;;0.50;99.90;;;;;;5067652;28;19923;-77
2023/01/20 06:06:17;;;;;;;;;;;0.50;99.90;;;;;;5072411;28;19988;-76
2023/01/20 06:08:43;;;;;;;;;;;0.60;99.90;;;;;;5063475;28;19915;-76
2023/01/20 06:11:08;;;;;;;;;;;0.60;99.90;;;;;;5066761;28;19908;-76
2023/01/20 06:13:34;;;;;;;;;;;0.60;99.90;;;;;;5073811;28;19974;-76
2023/01/20 06:16:00;;;;;;;;;;;0.50;99.90;;;;;;5071838;28;19998;-76
2023/01/20 06:18:25;;;;;;;;;;;0.60;99.90;;;;;;5067396;28;19912;-76
2023/01/20 06:20:51;;;;;;;;;;;0.50;99.90;;;;;;5070892;28;19936;-76
2023/01/20 06:23:17;;;;;;;;;;;0.50;99.90;;;;;;5077600;28;19911;-76
2023/01/20 06:25:42;;;;;;;;;;;0.50;99.90;;;;;;5074970;28;19908;-77
2023/01/20 06:28:08;;;;;;;;;;;0.50;99.90;;;;;;5065609;28;19905;-76
2023/01/20 06:30:33;;;;;;;;;;;0.50;99.90;;;;;;5077164;28;20061;-76
2023/01/20 06:32:59;;;;;;;;;;;0.50;99.90;;;;;;5077413;28;19908;-77
2023/01/20 06:35:25;;;;;;;;;;;0.50;99.90;;;;;;5076257;28;19904;-77
2023/01/20 06:37:51;;;;;;;;;;;0.40;99.90;;;;;;5076540;28;19931;-77
2023/01/20 06:40:16;;;;;;;;;;;0.40;99.90;;;;;;5076049;28;20299;-76
2023/01/20 06:42:42;;;;;;;;;;;0.40;99.90;;;;;;5070830;28;19908;-79
2023/01/20 06:45:08;;;;;;;;;;;0.50;99.90;;;;;;5063370;28;20016;-77
2023/01/20 06:47:34;;;;;;;;;;;0.40;99.90;;;;;;5068861;28;20370;-75
2023/01/20 06:49:59;;;;;;;;;;;0.50;99.90;;;;;;5064050;28;20114;-78
2023/01/20 06:52:25;;;;;;;;;;;0.50;99.90;;;;;;5065310;28;19911;-79
2023/01/20 06:54:50;;;;;;;;;;;0.40;99.90;;;;;;5062992;28;19911;-78
2023/01/20 06:57:17;;;;;;;;;;;0.40;99.90;;;;;;5062116;28;19912;-78
2023/01/20 06:59:42;;;;;;;;;;;0.50;99.90;;;;;;5068175;28;19917;-78
2023/01/20 07:02:09;;;;;;;;;;;0.50;99.90;;;;;;5067433;28;19919;-77
2023/01/20 07:04:34;;;;;;;;;;;0.50;99.90;;;;;;5059965;28;19908;-75
2023/01/20 07:07:00;;;;;;;;;;;0.50;99.90;;;;;;5073556;28;19999;-77
2023/01/20 07:09:25;;;;;;;;;;;0.50;99.90;;;;;;5064418;28;19931;-77
2023/01/20 07:11:51;;;;;;;;;;;0.50;99.90;;;;;;5067557;28;19904;-77
2023/01/20 07:14:16;;;;;;;;;;;0.50;99.90;;;;;;5067386;28;19912;-77
2023/01/20 07:16:42;;;;;;;;;;;0.60;99.90;;;;;;5063000;28;19927;-77
2023/01/20 07:19:07;;;;;;;;;;;0.60;99.90;;;;;;5068688;28;19920;-77
2023/01/20 07:21:33;;;;;;;;;;;0.60;99.90;;;;;;5064171;28;19905;-77
2023/01/20 07:24:00;;;;;;;;;;;0.50;99.90;;;;;;5065610;28;19908;-77
2023/01/20 07:26:25;;;;;;;;;;;0.60;99.90;;;;;;5060093;28;19909;-77
2023/01/20 07:28:51;;;;;;;;;;;0.50;99.90;;;;;;5060939;28;19911;-77
2023/01/20 07:31:24;;;;;;;;;;;0.50;99.90;;;;;;5062928;28;19904;-78
2023/01/20 07:33:49;;;;;;;;;;;0.60;99.90;;;;;;5066973;28;19909;-78
2023/01/20 07:36:16;;;;;;;;;;;0.60;99.90;;;;;;5069737;28;20314;-78
2023/01/20 07:38:41;;;;;;;;;;;0.50;99.90;;;;;;5063897;28;19909;-78
2023/01/20 07:41:10;;;;;;;;;;;0.60;99.90;;;;;;5063305;28;19905;-80
2023/01/20 07:43:36;;;;;;;;;;;0.60;99.90;;;;;;5065314;28;19904;-75
2023/01/20 07:46:03;;;;;;;;;;;0.60;99.90;;;;;;5067459;28;19912;-78
2023/01/20 07:48:29;;;;;;;;;;;0.60;99.90;;;;;;5060695;28;19908;-76
2023/01/20 07:51:01;;;;;;;;;;;0.60;99.90;;;;;;5068612;28;20430;-76
2023/01/20 07:53:53;;;;;;;;;;;0.60;99.90;;;;;;5068713;28;19961;-77
2023/01/20 07:56:23;;;;;;;;;;;0.60;99.90;;;;;;5064371;28;20187;-75
2023/01/20 07:58:49;;;;;;;;;;;0.70;99.90;;;;;;5061561;28;20386;-76
2023/01/20 08:01:14;;;;;;;;;;;0.70;99.90;;;;;;5070763;28;20518;-77
2023/01/20 08:03:40;;;;;;;;;;;0.70;99.90;;;;;;5063961;28;19908;-76
2023/01/20 08:06:07;;;;;;;;;;;0.70;99.90;;;;;;5072339;28;19908;-76
2023/01/20 08:08:33;;;;;;;;;;;0.70;99.90;;;;;;5065783;28;19904;-77
2023/01/20 08:11:00;;;;;;;;;;;0.80;99.90;;;;;;5071240;28;20317;-76
2023/01/20 08:13:26;;;;;;;;;;;0.80;99.90;;;;;;5067370;28;19911;-76
2023/01/20 08:15:51;;;;;;;;;;;0.80;99.90;;;;;;5065866;28;19908;-77
2023/01/20 08:18:17;;;;;;;;;;;0.80;99.90;;;;;;5071621;28;19973;-78
2023/01/20 08:20:42;;;;;;;;;;;0.80;99.90;;;;;;5063753;28;19904;-78
2023/01/20 08:23:08;;;;;;;;;;;0.80;99.90;;;;;;5061725;28;19920;-77
2023/01/20 08:25:33;;;;;;;;;;;0.80;99.90;;;;;;5065777;28;19924;-78
2023/01/20 08:27:59;;;;;;;;;;;0.80;99.90;;;;;;5059553;28;19909;-77
2023/01/20 08:30:24;;;;;;;;;;;0.80;99.90;;;;;;5060515;28;19958;-78
2023/01/20 08:32:50;;;;;;;;;;;0.80;99.90;;;;;;5063117;28;19957;-78
2023/01/20 08:35:16;;;;;;;;;;;0.90;99.90;;;;;;5065685;28;19912;-78
2023/01/20 08:37:41;;;;;;;;;;;0.90;99.90;;;;;;5069504;28;19991;-79
2023/01/20 08:40:08;;;;;;;;;;;0.90;99.90;;;;;;5071953;28;19909;-77
2023/01/20 08:42:37;;;;;;;;;;;0.80;99.90;;;;;;5064499;28;19926;-78
2023/01/20 08:45:03;;;;;;;;;;;0.80;99.90;;;;;;5064565;28;20236;-78
2023/01/20 08:47:29;;;;;;;;;;;0.80;99.90;;;;;;5071672;28;20297;-78
2023/01/20 08:49:54;;;;;;;;;;;0.80;99.90;;;;;;5060673;28;19916;-79
2023/01/20 08:52:20;;;;;;;;;;;0.80;99.90;;;;;;5072670;28;19912;-78
2023/01/20 08:54:45;;;;;;;;;;;0.90;99.90;;;;;;5073371;28;19911;-77
2023/01/20 08:57:11;;;;;;;;;;;0.90;99.90;;;;;;5074067;28;19957;-79
2023/01/20 08:59:37;;;;;;;;;;;0.80;99.90;;;;;;5061261;28;19916;-79
2023/01/20 09:02:02;;;;;;;;;;;0.80;99.90;;;;;;5072932;28;19908;-79
2023/01/20 09:04:28;;;;;;;;;;;0.80;99.90;;;;;;5075178;28;19932;-83
2023/01/20 09:06:53;;;;;;;;;;;0.80;99.90;;;;;;5074482;28;19938;-79
2023/01/20 09:09:19;;;;;;;;;;;0.80;99.90;;;;;;5066863;28;20293;-81
2023/01/20 09:11:49;;;;;;;;;;;0.80;99.90;;;;;;5054445;28;19904;-83
2023/01/20 09:14:15;;;;;;;;;;;0.80;99.90;;;;;;5055059;28;19909;-81
2023/01/20 09:16:41;;;;;;;;;;;0.80;99.90;;;;;;5067633;28;20033;-80
2023/01/20 09:19:06;;;;;;;;;;;0.70;99.90;;;;;;5073337;28;19924;-81
2023/01/20 09:21:32;;;;;;;;;;;0.60;99.90;;;;;;5064455;28;20343;-80
2023/01/20 09:23:58;;;;;;;;;;;0.60;99.90;;;;;;5061413;28;19912;-80
2023/01/20 09:26:24;;;;;;;;;;;0.60;99.90;;;;;;5067400;28;19934;-79
2023/01/20 09:28:49;;;;;;;;;;;0.60;99.90;;;;;;5064579;28;20036;-80
2023/01/20 09:31:15;;;;;;;;;;;0.60;99.90;;;;;;5067080;28;19905;-81
2023/01/20 09:33:40;;;;;;;;;;;0.60;99.90;;;;;;5052213;28;20421;-81
2023/01/20 09:36:07;;;;;;;;;;;0.70;99.90;;;;;;5077122;28;20018;-82
2023/01/20 09:44:07;;;;;;;;;;;0.70;99.90;;;;;;5065356;28;20325;-83
2023/01/20 09:46:34;;;;;;;;;;;0.70;99.90;;;;;;5077198;28;19908;-82
2023/01/20 09:55:03;;;;;;;;;;;0.70;99.90;;;;;;5078770;28;19950;-85
2023/01/20 09:57:32;;;;;;;;;;;0.70;99.90;;;;;;5079305;28;20200;-86
2023/01/20 10:00:05;;;;;;;;;;;0.70;99.90;;;;;;5069448;28;19913;-88
2023/01/20 10:02:33;;;;;;;;;;;0.70;99.90;;;;;;5069787;28;19966;-88
2023/01/20 10:05:01;;;;;;;;;;;0.70;99.90;;;;;;5061532;28;19959;-86
2023/01/20 10:07:36;;;;;;;;;;;0.80;99.90;;;;;;5064706;28;20197;-87
2023/01/20 10:10:09;;;;;;;;;;;0.80;99.90;;;;;;5069804;28;20251;-86
2023/01/20 10:12:44;;;;;;;;;;;0.80;99.90;;;;;;5072809;28;19908;-88
2023/01/20 10:15:29;;;;;;;;;;;0.80;99.90;;;;;;5068503;28;19916;-88
2023/01/20 10:17:57;;;;;;;;;;;0.80;99.90;;;;;;5066948;28;19908;-85
2023/01/20 10:20:26;;;;;;;;;;;0.90;99.90;;;;;;5063569;28;19921;-86
2023/01/20 10:23:13;;;;;;;;;;;0.90;99.90;;;;;;5066826;28;19911;-84
2023/01/20 10:25:44;;;;;;;;;;;0.80;99.90;;;;;;5068459;28;19908;-88
2023/01/20 10:28:10;;;;;;;;;;;0.80;99.90;;;;;;5069558;28;20242;-89
2023/01/20 10:30:37;;;;;;;;;;;0.90;99.90;;;;;;5066059;28;19905;-88
2023/01/20 10:33:07;;;;;;;;;;;0.90;99.90;;;;;;5067053;28;19911;-86
2023/01/20 10:35:35;;;;;;;;;;;0.90;99.90;;;;;;5069781;28;19978;-85
2023/01/20 10:38:04;;;;;;;;;;;0.90;99.90;;;;;;5070032;28;19905;-88
2023/01/20 10:40:42;;;;;;;;;;;1.00;99.90;;;;;;5063037;28;19909;-87
2023/01/20 10:43:11;;;;;;;;;;;1.00;99.90;;;;;;5071689;28;20305;-84
2023/01/20 10:45:37;;;;;;;;;;;1.10;99.90;;;;;;5068552;28;19904;-87
2023/01/20 10:48:32;;;;;;;;;;;1.20;99.90;;;;;;5063765;28;19923;-84
2023/01/20 10:51:07;;;;;;;;;;;1.20;99.90;;;;;;5053666;28;19911;-85
2023/01/20 10:53:39;;;;;;;;;;;1.20;99.90;;;;;;5068879;28;19904;-84
2023/01/20 10:56:22;;;;;;;;;;;1.20;99.90;;;;;;5069225;28;19915;-84
2023/01/20 10:58:48;;;;;;;;;;;1.20;99.90;;;;;;5090914;28;19958;-82
2023/01/20 11:01:15;;;;;;;;;;;1.30;99.90;;;;;;5076970;28;20310;-81
2023/01/20 11:03:42;;;;;;;;;;;1.40;99.90;;;;;;5074081;28;19962;-80
2023/01/20 11:06:21;;;;;;;;;;;1.50;99.90;;;;;;5066533;28;20283;-75
2023/01/20 11:08:47;;;;;;;;;;;1.60;99.90;;;;;;5075705;28;19991;-75
2023/01/20 11:11:15;;;;;;;;;;;1.70;99.90;;;;;;5075583;28;19923;-76
2023/01/20 11:13:40;;;;;;;;;;;1.90;99.90;;;;;;5076111;28;19995;-75
2023/01/20 11:16:11;;;;;;;;;;;1.90;99.90;;;;;;5076002;28;19986;-82
2023/01/20 11:18:37;;;;;;;;;;;1.90;99.90;;;;;;5070307;28;20334;-85
2023/01/20 11:21:04;;;;;;;;;;;1.90;99.90;;;;;;5076535;28;19905;-82
2023/01/20 11:23:36;;;;;;;;;;;1.80;99.90;;;;;;5076663;28;19908;-82
2023/01/20 11:26:08;;;;;;;;;;;1.70;99.90;;;;;;5074712;28;19904;-79
2023/01/20 11:28:53;;;;;;;;;;;1.70;99.90;;;;;;5076572;28;19991;-81
2023/01/20 11:31:19;;;;;;;;;;;1.70;99.90;;;;;;5073636;28;19904;-79
2023/01/20 11:33:55;;;;;;;;;;;1.70;99.90;;;;;;5076604;28;19957;-80
2023/01/20 11:36:25;;;;;;;;;;;1.70;99.90;;;;;;5071674;28;19908;-80
2023/01/20 11:38:51;;;;;;;;;;;1.70;99.90;;;;;;5076223;28;19920;-78
2023/01/20 11:41:22;;;;;;;;;;;1.80;99.90;;;;;;5075352;28;19904;-79
2023/01/20 11:43:48;;;;;;;;;;;1.70;99.90;;;;;;5074995;28;19966;-79
2023/01/20 11:46:15;;;;;;;;;;;1.70;99.90;;;;;;5066272;28;20363;-79
2023/01/20 11:48:41;;;;;;;;;;;1.70;99.90;;;;;;5067281;28;19912;-78
2023/01/20 11:51:17;;;;;;;;;;;1.60;99.90;;;;;;5070991;28;20216;-78
2023/01/20 11:53:44;;;;;;;;;;;1.60;99.90;;;;;;5071273;28;19904;-78
2023/01/20 11:56:21;;;;;;;;;;;1.60;99.90;;;;;;5065664;28;19905;-78
2023/01/20 11:59:09;;;;;;;;;;;1.60;99.90;;;;;;5070337;28;20006;-80
2023/01/20 12:02:00;;;;;;;;;;;1.60;99.90;;;;;;5071873;28;19912;-78
2023/01/20 12:04:31;;;;;;;;;;;1.60;99.90;;;;;;5052046;28;19904;-77
2023/01/20 12:07:16;;;;;;;;;;;1.60;99.90;;;;;;5068678;28;19904;-77
2023/01/20 12:09:43;;;;;;;;;;;1.60;99.90;;;;;;5066800;28;19946;-77
2023/01/20 12:12:27;;;;;;;;;;;1.60;99.90;;;;;;5071517;28;19904;-77
2023/01/20 12:15:19;;;;;;;;;;;1.60;99.90;;;;;;5063104;28;19905;-78
2023/01/20 12:17:47;;;;;;;;;;;1.60;99.90;;;;;;5067831;28;19912;-76
2023/01/20 12:20:20;;;;;;;;;;;1.60;99.90;;;;;;5074336;28;20256;-76
2023/01/20 12:22:56;;;;;;;;;;;1.70;99.90;;;;;;5068878;28;20342;-77
2023/01/20 12:25:24;;;;;;;;;;;1.70;99.90;;;;;;5071574;28;19904;-76
2023/01/20 12:28:00;;;;;;;;;;;1.70;99.90;;;;;;5072395;28;19912;-76
2023/01/20 12:30:40;;;;;;;;;;;1.70;99.90;;;;;;5061209;28;20001;-78
2023/01/20 12:33:15;;;;;;;;;;;1.70;99.90;;;;;;5071435;28;19904;-76
2023/01/20 12:35:45;;;;;;;;;;;1.70;99.90;;;;;;5075124;28;19998;-76
2023/01/20 12:38:14;;;;;;;;;;;1.80;99.90;;;;;;5062918;28;19912;-76
2023/01/20 12:40:45;;;;;;;;;;;1.70;99.90;;;;;;5074988;28;19912;-76
2023/01/20 12:43:20;;;;;;;;;;;1.80;99.90;;;;;;5075236;28;20230;-77
2023/01/20 12:45:58;;;;;;;;;;;1.80;99.90;;;;;;5075108;28;20003;-78
2023/01/20 12:48:24;;;;;;;;;;;1.80;99.90;;;;;;5055441;28;20207;-77
2023/01/20 12:50:55;;;;;;;;;;;1.70;99.90;;;;;;5068960;28;19915;-76
2023/01/20 12:53:30;;;;;;;;;;;1.70;99.90;;;;;;5072882;28;20285;-75
2023/01/20 12:56:02;;;;;;;;;;;1.70;99.90;;;;;;5073898;28;19954;-77
2023/01/20 12:58:31;;;;;;;;;;;1.70;99.90;;;;;;5074391;28;21358;-78
2023/01/20 13:01:15;;;;;;;;;;;1.70;99.90;;;;;;5065713;28;19913;-77
2023/01/20 13:03:50;;;;;;;;;;;1.70;99.90;;;;;;5058053;28;19908;-75
2023/01/20 13:06:19;;;;;;;;;;;1.60;99.90;;;;;;5073996;28;19934;-77
2023/01/20 13:09:03;;;;;;;;;;;1.60;99.90;;;;;;5077675;28;20222;-77
2023/01/20 13:11:34;;;;;;;;;;;1.60;99.90;;;;;;5078915;28;19914;-78
2023/01/20 13:14:12;;;;;;;;;;;1.50;99.90;;;;;;5059895;28;19912;-78
2023/01/20 13:17:02;;;;;;;;;;;1.50;99.90;;;;;;5062784;28;20330;-77
2023/01/20 13:19:27;;;;;;;;;;;1.40;99.90;;;;;;5066417;28;19918;-77
2023/01/20 13:21:53;;;;;;;;;;;1.40;99.90;;;;;;5077665;28;19944;-77
2023/01/20 13:24:27;;;;;;;;;;;1.40;99.90;;;;;;5071291;28;19992;-77
2023/01/20 13:26:54;;;;;;;;;;;1.50;99.90;;;;;;5070442;28;19908;-77
2023/01/20 13:29:22;;;;;;;;;;;1.50;99.90;;;;;;5064138;28;20143;-79
2023/01/20 13:31:49;;;;;;;;;;;1.50;99.90;;;;;;5078624;28;19991;-77
2023/01/20 13:34:21;;;;;;;;;;;1.50;99.90;;;;;;5076835;28;19904;-76
2023/01/20 13:37:02;;;;;;;;;;;1.50;99.90;;;;;;5078252;28;19912;-76
2023/01/20 13:39:39;;;;;;;;;;;1.40;99.90;;;;;;5072519;28;19909;-76
2023/01/20 13:42:23;;;;;;;;;;;1.40;99.90;;;;;;5070097;28;20306;-76
2023/01/20 13:45:08;;;;;;;;;;;1.50;99.90;;;;;;5064714;28;19953;-76
2023/01/20 13:47:46;;;;;;;;;;;1.50;99.90;;;;;;5077500;28;19931;-76
2023/01/20 13:50:22;;;;;;;;;;;1.50;99.90;;;;;;5068599;28;19951;-77
2023/01/20 13:52:51;;;;;;;;;;;1.50;99.90;;;;;;5073963;28;20290;-76
2023/01/20 13:55:29;;;;;;;;;;;1.40;99.90;;;;;;5077979;28;19970;-76
2023/01/20 13:57:54;;;;;;;;;;;1.40;99.90;;;;;;5078217;28;19943;-77
2023/01/20 14:00:20;;;;;;;;;;;1.40;99.90;;;;;;5076171;28;19959;-76
2023/01/20 14:02:47;;;;;;;;;;;1.40;99.90;;;;;;5078039;28;19946;-77
2023/01/20 14:05:23;;;;;;;;;;;1.40;99.90;;;;;;5071321;28;19919;-76
2023/01/20 14:07:49;;;;;;;;;;;1.30;99.90;;;;;;5068001;28;20226;-77
2023/01/20 14:10:14;;;;;;;;;;;1.40;99.90;;;;;;5075943;28;19904;-76
2023/01/20 14:12:40;;;;;;;;;;;1.40;99.90;;;;;;5076568;28;19940;-75
2023/01/20 14:15:06;;;;;;;;;;;1.30;99.90;;;;;;5076547;28;20322;-75
2023/01/20 14:17:32;;;;;;;;;;;1.40;99.90;;;;;;5076921;28;19999;-75
2023/01/20 14:19:57;;;;;;;;;;;1.40;99.90;;;;;;5076844;28;19916;-75
2023/01/20 14:22:30;;;;;;;;;;;1.40;99.90;;;;;;5077162;28;19905;-76
2023/01/20 14:24:57;;;;;;;;;;;1.40;99.90;;;;;;5077687;28;20264;-77
2023/01/20 14:27:28;;;;;;;;;;;1.40;99.90;;;;;;5072901;28;19962;-76
2023/01/20 14:29:59;;;;;;;;;;;1.40;99.90;;;;;;5057722;28;19904;-77
2023/01/20 14:32:25;;;;;;;;;;;1.40;99.90;;;;;;5073647;28;19915;-76
2023/01/20 14:34:52;;;;;;;;;;;1.40;99.90;;;;;;5076534;28;19912;-77
2023/01/20 14:37:17;;;;;;;;;;;1.40;99.90;;;;;;5072456;28;19909;-76
2023/01/20 14:39:46;;;;;;;;;;;1.40;99.90;;;;;;5068812;28;19915;-77
2023/01/20 14:42:16;;;;;;;;;;;1.40;99.90;;;;;;5069283;28;20354;-76
2023/01/20 14:44:45;;;;;;;;;;;1.40;99.90;;;;;;5067301;28;19905;-75
2023/01/20 14:47:11;;;;;;;;;;;1.40;99.90;;;;;;5070976;28;19908;-76
2023/01/20 14:49:40;;;;;;;;;;;1.40;99.90;;;;;;5070849;28;20227;-76
2023/01/20 14:52:07;;;;;;;;;;;1.40;99.90;;;;;;5076925;28;19911;-76